Abegall, Kentucky
Current Conditions -  °F | °C
As of 2:35 AM on Saturday 29 Nov 2014 (Local Time) from KFGX Reporting Station
Clear Clear  
Wind Chill: 26°   Ceiling: Unl
Heat Index: 32°   Visibility: 10mi
Dew Point: 21°   Wind: 6mph
Humidity: 63%   Direction: 170°S
Pressure: 30.12"   Gusts: NA
Location:  38.6546°N, 83.9578°W
Report Text: KFGX 290735Z AUTO 17005KT 10SM CLR 00/M06 A3012 RMK AO2 T00001062
Loading
Personal Weather Stations






























Interactive Weather Map New forecast layout! Learn more

10-Day Weather Forecast

Advertisements
Track Severe Weather on mobile